• Join FlightAware (Why Join?)
  • Login
  • US Flag 
11:45AM EST


 

Airport Tracker/Info


-or-


 

Live Flight TrackerFlight Track Log ✈ AXM6180 ✈ 04-Jul-2013 ✈ WBGG / KCH - WBGR / MYY

Flight Track Log - Related Links

Times and Time Zones

All times are in EDT time to prevent confusion due to time zone crossing. See the AXM6180 flight status page for this flight to view local times or setup timezone preferences in your user account.

Time Position Orientation Groundspeed Altitude Reporting Facility
EDT Latitude Longitude Course Direction KTS MPH feet Rate Location/Type
11:50PM 1.4860 110.3440 67° East  Level FlightAware
11:52PM 1.4870 110.3450 45° Northeast 25 29 120 Level FlightAware
11:53PM 1.4870 110.3470 90° East 15 17 180 Level FlightAware
11:53PM 1.4880 110.3500 72° East 22 25 240 Level FlightAware
11:54PM 1.4890 110.3520 63° Northeast 23 26 300 Level FlightAware
11:54PM 1.4900 110.3540 63° Northeast 24 28 300 Level FlightAware
11:54PM 1.4910 110.3570 72° East 25 29 420 Level FlightAware
11:55PM 1.4920 110.3590 63° Northeast 15 17 480 Level FlightAware
11:55PM 1.4900 110.3600 153° Southeast 21 24 600 Level FlightAware
11:56PM 1.4900 110.3590 270° West 32 37 840 Level FlightAware
11:56PM 1.4870 110.3510 249° West 125 144 1,200 Level FlightAware
11:56PM 1.4810 110.3350 249° West 147 169 1,000 1,860 Climbing FlightAware
11:57PM 1.4930 110.3200 309° West 178 205 1,700 1,320 Climbing FlightAware
11:57PM 1.5230 110.3310 20° North 226 260 2,400 1,380 Climbing FlightAware
11:58PM 1.5440 110.3490 41° Northeast 261 300 3,100 2,400 Climbing FlightAware
11:58PM 1.5660 110.3780 53° Northeast 272 313 4,600 2,820 Climbing FlightAware
11:59PM 1.5890 110.4070 52° Northeast 294 338 5,800 1,920 Climbing FlightAware
11:59PM 1.6160 110.4420 52° Northeast 337 388 6,500 1,980 Climbing FlightAware
12:00AM 1.6390 110.4730 53° Northeast 344 396 7,600 2,820 Climbing FlightAware
12:00AM 1.6690 110.5120 52° Northeast 349 402 9,100 2,640 Climbing FlightAware
12:01AM 1.7130 110.5690 52° Northeast 366 421 10,900 2,580 Climbing FlightAware
12:02AM 1.7530 110.6220 53° Northeast 369 425 12,700 2,760 Climbing FlightAware
12:02AM 1.7980 110.6810 53° Northeast 371 427 14,700 2,400 Climbing FlightAware
12:03AM 1.8450 110.7420 52° Northeast 383 441 16,200 1,920 Climbing FlightAware
12:04AM 1.8830 110.7920 53° Northeast 389 448 17,300 1,920 Climbing FlightAware
12:04AM 1.9350 110.8600 53° Northeast 394 453 18,900 1,740 Climbing FlightAware
12:05AM 1.9820 110.9220 53° Northeast 407 468 19,900 1,380 Climbing FlightAware
12:06AM 2.0320 110.9870 52° Northeast 418 481 20,900 1,500 Climbing FlightAware
12:06AM 2.0830 111.0530 52° Northeast 421 484 22,100 1,620 Climbing FlightAware
12:07AM 2.1240 111.1070 53° Northeast 427 491 23,000 1,440 Climbing FlightAware
12:08AM 2.1700 111.1680 53° Northeast 431 496 23,900 1,440 Climbing FlightAware
12:08AM 2.2240 111.2380 52° Northeast 434 499 25,000 1,440 Climbing FlightAware
12:09AM 2.2640 111.2910 53° Northeast 436 502 25,800 1,140 Climbing FlightAware
12:10AM 2.3190 111.3620 52° Northeast 444 511 26,500 960 Climbing FlightAware
12:10AM 2.3600 111.4170 53° Northeast 449 517 27,100 420 Climbing FlightAware
12:11AM 2.4080 111.4780 52° Northeast 449 517 27,100  Level FlightAware
12:12AM 2.4620 111.5470 52° Northeast 449 517 27,100  Level FlightAware
12:12AM 2.5010 111.5970 52° Northeast 449 517 27,100  Level FlightAware
12:13AM 2.5530 111.6640 52° Northeast 449 517 27,100  Level FlightAware
12:14AM 2.5930 111.7150 52° Northeast 449 517 27,100  Level FlightAware
12:17AM 2.7286 111.8930 53° Northeast  Level Estimated
12:18AM 2.7795 111.9597 53° Northeast  Level Estimated
12:19AM 2.8303 112.0265 53° Northeast  Level Estimated
12:20AM 2.8812 112.0932 53° Northeast  Level Estimated
12:21AM 2.9320 112.1600 53° Northeast  Level Estimated
12:22AM 2.9829 112.2268 53° Northeast  Level Estimated
12:23AM 3.0337 112.2936 53° Northeast  Level Estimated
12:24AM 3.0845 112.3604 53° Northeast  Level Estimated
12:25AM 3.1353 112.4272 53° Northeast  Level Estimated
12:26AM 3.1862 112.4940 53° Northeast  Level Estimated
12:27AM 3.2370 112.5608 53° Northeast  Level Estimated
12:28AM 3.2878 112.6276 53° Northeast  Level Estimated
12:29AM 3.3386 112.6944 53° Northeast  Level Estimated
12:30AM 3.3894 112.7612 53° Northeast  Level Estimated
12:31AM 3.4402 112.8281 53° Northeast  Level Estimated
12:32AM 3.4910 112.8949 53° Northeast  Level Estimated
12:33AM 3.5418 112.9618 53° Northeast  Level Estimated
12:34AM 3.5926 113.0286 53° Northeast  Level Estimated
12:35AM 3.6433 113.0955 53° Northeast  Level Estimated
12:36AM 3.6941 113.1624 53° Northeast  Level Estimated
12:37AM 3.7449 113.2292 53° Northeast  Level Estimated
12:38AM 3.7957 113.2961 53° Northeast  Level Estimated
12:39AM 3.8464 113.3630 53° Northeast  Level Estimated
12:40AM 3.8972 113.4299 53° Northeast  Level Estimated
12:41AM 3.9479 113.4968 53° Northeast  Level Estimated
12:42AM 3.9987 113.5637 53° Northeast  Level Estimated
12:43AM 4.0494 113.6307 53° Northeast  Level Estimated
12:44AM 4.1001 113.6976 53° Northeast  Level Estimated
12:45AM 4.1508 113.7645 53° Northeast  Level Estimated
12:46AM 4.2016 113.8315 53° Northeast  Level Estimated
12:47AM 4.2523 113.8985 53° Northeast  Level Estimated
12:48AM 4.3030 113.9654 53° Northeast  Level Estimated
12:49AM 4.3218 113.9903 53° Northeast  Level Estimated
12:50AM 4.3218 113.9903 37° Northeast  Level Estimated
12:51AM 4.3218 113.9903 37° Northeast  Level Estimated
12:52AM 4.3218 113.9903 37° Northeast  Level Estimated
12:53AM 4.3218 113.9903 37° Northeast  Level Estimated
12:54AM 4.3218 113.9903 37° Northeast  Level Estimated
12:55AM 4.3218 113.9903 37° Northeast  Level Estimated
12:56AM 4.3218 113.9903 37° Northeast  Level Estimated
12:57AM 4.3218 113.9903 37° Northeast  Level Estimated
12:58AM 4.3218 113.9903 37° Northeast  Level Estimated
12:59AM 4.3218 113.9903 37° Northeast  Level Estimated